sensor_id;sensor_type;location;lat;lon;timestamp;P1;durP1;ratioP1;P2;durP2;ratioP2
37483;SDS011;23337;52.212;9.926;2022-11-20T00:01:04;16.17;;;11.10;;
37483;SDS011;23337;52.212;9.926;2022-11-20T00:03:30;15.57;;;12.13;;
37483;SDS011;23337;52.212;9.926;2022-11-20T00:06:00;16.43;;;12.73;;
37483;SDS011;23337;52.212;9.926;2022-11-20T00:08:26;17.97;;;12.03;;
37483;SDS011;23337;52.212;9.926;2022-11-20T00:10:52;15.40;;;11.27;;
37483;SDS011;23337;52.212;9.926;2022-11-20T00:13:18;14.73;;;11.43;;
37483;SDS011;23337;52.212;9.926;2022-11-20T00:15:44;14.10;;;11.30;;
37483;SDS011;23337;52.212;9.926;2022-11-20T00:18:10;15.97;;;11.77;;
37483;SDS011;23337;52.212;9.926;2022-11-20T00:20:36;18.53;;;11.60;;
37483;SDS011;23337;52.212;9.926;2022-11-20T00:23:02;15.30;;;11.47;;
37483;SDS011;23337;52.212;9.926;2022-11-20T00:25:28;18.53;;;12.37;;
37483;SDS011;23337;52.212;9.926;2022-11-20T00:27:54;14.97;;;11.43;;
37483;SDS011;23337;52.212;9.926;2022-11-20T00:30:20;14.60;;;11.13;;
37483;SDS011;23337;52.212;9.926;2022-11-20T00:32:46;17.03;;;12.13;;
37483;SDS011;23337;52.212;9.926;2022-11-20T00:35:12;19.83;;;12.83;;
37483;SDS011;23337;52.212;9.926;2022-11-20T00:37:37;15.90;;;12.47;;
37483;SDS011;23337;52.212;9.926;2022-11-20T00:40:04;16.73;;;12.13;;
37483;SDS011;23337;52.212;9.926;2022-11-20T00:42:30;15.87;;;11.77;;
37483;SDS011;23337;52.212;9.926;2022-11-20T00:44:57;19.17;;;12.90;;
37483;SDS011;23337;52.212;9.926;2022-11-20T00:47:23;19.63;;;13.83;;
37483;SDS011;23337;52.212;9.926;2022-11-20T00:49:49;21.67;;;13.40;;
37483;SDS011;23337;52.212;9.926;2022-11-20T00:52:15;20.03;;;13.63;;
37483;SDS011;23337;52.212;9.926;2022-11-20T00:54:41;15.83;;;12.70;;
37483;SDS011;23337;52.212;9.926;2022-11-20T00:57:07;20.93;;;14.30;;
37483;SDS011;23337;52.212;9.926;2022-11-20T00:59:33;23.70;;;15.67;;
37483;SDS011;23337;52.212;9.926;2022-11-20T01:01:59;21.30;;;15.47;;
37483;SDS011;23337;52.212;9.926;2022-11-20T01:04:25;20.77;;;15.27;;
37483;SDS011;23337;52.212;9.926;2022-11-20T01:06:51;22.17;;;15.00;;
37483;SDS011;23337;52.212;9.926;2022-11-20T01:09:17;20.83;;;14.67;;
37483;SDS011;23337;52.212;9.926;2022-11-20T01:11:43;21.83;;;15.37;;
37483;SDS011;23337;52.212;9.926;2022-11-20T01:14:10;18.47;;;13.67;;
37483;SDS011;23337;52.212;9.926;2022-11-20T01:16:38;20.83;;;14.23;;
37483;SDS011;23337;52.212;9.926;2022-11-20T01:19:05;18.50;;;14.00;;
37483;SDS011;23337;52.212;9.926;2022-11-20T01:21:32;17.20;;;12.33;;
37483;SDS011;23337;52.212;9.926;2022-11-20T01:23:58;19.80;;;13.10;;
37483;SDS011;23337;52.212;9.926;2022-11-20T01:26:26;17.07;;;13.03;;
37483;SDS011;23337;52.212;9.926;2022-11-20T01:28:53;17.10;;;12.43;;
37483;SDS011;23337;52.212;9.926;2022-11-20T01:31:20;17.53;;;11.70;;
37483;SDS011;23337;52.212;9.926;2022-11-20T01:33:47;15.63;;;11.37;;
37483;SDS011;23337;52.212;9.926;2022-11-20T01:36:14;13.33;;;10.97;;
37483;SDS011;23337;52.212;9.926;2022-11-20T01:38:40;15.50;;;10.57;;
37483;SDS011;23337;52.212;9.926;2022-11-20T01:41:06;14.33;;;10.30;;
37483;SDS011;23337;52.212;9.926;2022-11-20T01:43:33;13.97;;;10.47;;
37483;SDS011;23337;52.212;9.926;2022-11-20T01:46:18;14.13;;;11.60;;
37483;SDS011;23337;52.212;9.926;2022-11-20T01:48:46;19.27;;;10.27;;
37483;SDS011;23337;52.212;9.926;2022-11-20T01:53:48;12.57;;;9.53;;
37483;SDS011;23337;52.212;9.926;2022-11-20T01:56:15;12.07;;;8.93;;
37483;SDS011;23337;52.212;9.926;2022-11-20T01:58:43;15.37;;;10.37;;
37483;SDS011;23337;52.212;9.926;2022-11-20T02:01:10;13.77;;;9.00;;
37483;SDS011;23337;52.212;9.926;2022-11-20T02:03:36;11.93;;;9.37;;
37483;SDS011;23337;52.212;9.926;2022-11-20T02:06:11;12.70;;;10.03;;
37483;SDS011;23337;52.212;9.926;2022-11-20T02:08:38;13.87;;;9.40;;
37483;SDS011;23337;52.212;9.926;2022-11-20T02:11:04;14.70;;;10.40;;
37483;SDS011;23337;52.212;9.926;2022-11-20T02:13:30;12.60;;;9.30;;
37483;SDS011;23337;52.212;9.926;2022-11-20T02:16:13;13.57;;;9.73;;
37483;SDS011;23337;52.212;9.926;2022-11-20T02:18:40;14.53;;;10.03;;
37483;SDS011;23337;52.212;9.926;2022-11-20T02:21:07;14.47;;;10.23;;
37483;SDS011;23337;52.212;9.926;2022-11-20T02:26:01;14.07;;;9.90;;
37483;SDS011;23337;52.212;9.926;2022-11-20T02:28:28;11.33;;;9.03;;
37483;SDS011;23337;52.212;9.926;2022-11-20T02:30:55;15.93;;;9.63;;
37483;SDS011;23337;52.212;9.926;2022-11-20T02:33:21;14.13;;;9.23;;
37483;SDS011;23337;52.212;9.926;2022-11-20T02:35:47;13.00;;;9.50;;
37483;SDS011;23337;52.212;9.926;2022-11-20T02:38:13;14.65;;;9.00;;
37483;SDS011;23337;52.212;9.926;2022-11-20T02:40:39;14.77;;;10.57;;
37483;SDS011;23337;52.212;9.926;2022-11-20T02:43:05;13.20;;;9.93;;
37483;SDS011;23337;52.212;9.926;2022-11-20T02:45:31;14.40;;;10.50;;
37483;SDS011;23337;52.212;9.926;2022-11-20T02:47:58;14.80;;;10.03;;
37483;SDS011;23337;52.212;9.926;2022-11-20T02:50:24;12.17;;;9.53;;
37483;SDS011;23337;52.212;9.926;2022-11-20T02:52:50;11.97;;;9.80;;
37483;SDS011;23337;52.212;9.926;2022-11-20T02:55:16;13.77;;;9.27;;
37483;SDS011;23337;52.212;9.926;2022-11-20T02:57:41;13.50;;;9.67;;
37483;SDS011;23337;52.212;9.926;2022-11-20T03:00:08;13.33;;;9.30;;
37483;SDS011;23337;52.212;9.926;2022-11-20T03:02:34;13.00;;;9.83;;
37483;SDS011;23337;52.212;9.926;2022-11-20T03:05:00;12.67;;;9.53;;
37483;SDS011;23337;52.212;9.926;2022-11-20T03:07:26;14.73;;;9.10;;
37483;SDS011;23337;52.212;9.926;2022-11-20T03:09:52;12.00;;;9.63;;
37483;SDS011;23337;52.212;9.926;2022-11-20T03:12:17;11.70;;;8.93;;
37483;SDS011;23337;52.212;9.926;2022-11-20T03:14:43;12.93;;;9.57;;
37483;SDS011;23337;52.212;9.926;2022-11-20T03:17:09;11.97;;;8.33;;
37483;SDS011;23337;52.212;9.926;2022-11-20T03:19:36;13.53;;;9.63;;
37483;SDS011;23337;52.212;9.926;2022-11-20T03:22:02;12.47;;;9.37;;
37483;SDS011;23337;52.212;9.926;2022-11-20T03:24:28;13.70;;;9.03;;
37483;SDS011;23337;52.212;9.926;2022-11-20T03:26:53;11.57;;;9.53;;
37483;SDS011;23337;52.212;9.926;2022-11-20T03:29:19;12.60;;;9.90;;
37483;SDS011;23337;52.212;9.926;2022-11-20T03:31:45;12.60;;;8.93;;
37483;SDS011;23337;52.212;9.926;2022-11-20T03:34:11;9.70;;;8.57;;
37483;SDS011;23337;52.212;9.926;2022-11-20T03:36:38;13.00;;;9.60;;
37483;SDS011;23337;52.212;9.926;2022-11-20T03:39:04;10.77;;;8.17;;
37483;SDS011;23337;52.212;9.926;2022-11-20T03:41:30;11.33;;;8.90;;
37483;SDS011;23337;52.212;9.926;2022-11-20T03:43:58;10.67;;;8.77;;
37483;SDS011;23337;52.212;9.926;2022-11-20T03:46:24;12.87;;;10.27;;
37483;SDS011;23337;52.212;9.926;2022-11-20T03:48:50;10.23;;;8.23;;
37483;SDS011;23337;52.212;9.926;2022-11-20T03:51:26;10.93;;;8.43;;
37483;SDS011;23337;52.212;9.926;2022-11-20T03:53:54;11.30;;;8.87;;
37483;SDS011;23337;52.212;9.926;2022-11-20T03:56:22;10.17;;;7.83;;
37483;SDS011;23337;52.212;9.926;2022-11-20T03:58:49;10.40;;;8.43;;
37483;SDS011;23337;52.212;9.926;2022-11-20T04:01:19;10.77;;;8.57;;
37483;SDS011;23337;52.212;9.926;2022-11-20T04:03:45;11.83;;;8.00;;
37483;SDS011;23337;52.212;9.926;2022-11-20T04:06:13;10.17;;;8.83;;
37483;SDS011;23337;52.212;9.926;2022-11-20T04:08:39;9.50;;;8.23;;
37483;SDS011;23337;52.212;9.926;2022-11-20T04:11:09;10.37;;;8.17;;
37483;SDS011;23337;52.212;9.926;2022-11-20T04:13:35;12.43;;;9.27;;
37483;SDS011;23337;52.212;9.926;2022-11-20T04:16:01;11.17;;;8.97;;
37483;SDS011;23337;52.212;9.926;2022-11-20T04:18:27;11.10;;;8.03;;
37483;SDS011;23337;52.212;9.926;2022-11-20T04:20:53;11.93;;;8.17;;
37483;SDS011;23337;52.212;9.926;2022-11-20T04:23:19;11.47;;;8.57;;
37483;SDS011;23337;52.212;9.926;2022-11-20T04:25:45;12.93;;;9.80;;
37483;SDS011;23337;52.212;9.926;2022-11-20T04:28:11;10.60;;;8.70;;
37483;SDS011;23337;52.212;9.926;2022-11-20T04:30:37;11.67;;;8.43;;
37483;SDS011;23337;52.212;9.926;2022-11-20T04:33:03;9.53;;;7.63;;
37483;SDS011;23337;52.212;9.926;2022-11-20T04:35:29;11.10;;;8.20;;
37483;SDS011;23337;52.212;9.926;2022-11-20T04:37:55;12.83;;;8.20;;
37483;SDS011;23337;52.212;9.926;2022-11-20T04:40:20;12.20;;;8.73;;
37483;SDS011;23337;52.212;9.926;2022-11-20T04:42:46;10.50;;;8.23;;
37483;SDS011;23337;52.212;9.926;2022-11-20T04:45:12;11.53;;;8.40;;
37483;SDS011;23337;52.212;9.926;2022-11-20T04:47:38;10.97;;;7.63;;
37483;SDS011;23337;52.212;9.926;2022-11-20T04:50:04;11.33;;;7.67;;
37483;SDS011;23337;52.212;9.926;2022-11-20T04:52:30;11.13;;;8.53;;
37483;SDS011;23337;52.212;9.926;2022-11-20T04:54:56;11.13;;;7.87;;
37483;SDS011;23337;52.212;9.926;2022-11-20T04:57:22;9.13;;;7.57;;
37483;SDS011;23337;52.212;9.926;2022-11-20T04:59:48;9.10;;;6.77;;
37483;SDS011;23337;52.212;9.926;2022-11-20T05:02:14;12.10;;;8.30;;
37483;SDS011;23337;52.212;9.926;2022-11-20T05:04:40;10.47;;;7.97;;
37483;SDS011;23337;52.212;9.926;2022-11-20T05:07:06;10.90;;;8.30;;
37483;SDS011;23337;52.212;9.926;2022-11-20T05:09:32;10.80;;;8.03;;
37483;SDS011;23337;52.212;9.926;2022-11-20T05:11:58;9.60;;;7.47;;
37483;SDS011;23337;52.212;9.926;2022-11-20T05:14:24;11.17;;;7.27;;
37483;SDS011;23337;52.212;9.926;2022-11-20T05:16:50;8.37;;;6.87;;
37483;SDS011;23337;52.212;9.926;2022-11-20T05:19:16;10.13;;;7.43;;
37483;SDS011;23337;52.212;9.926;2022-11-20T05:21:42;8.90;;;7.23;;
37483;SDS011;23337;52.212;9.926;2022-11-20T05:24:08;9.97;;;7.80;;
37483;SDS011;23337;52.212;9.926;2022-11-20T05:26:34;12.13;;;8.30;;
37483;SDS011;23337;52.212;9.926;2022-11-20T05:28:59;10.00;;;7.60;;
37483;SDS011;23337;52.212;9.926;2022-11-20T05:31:25;11.23;;;8.37;;
37483;SDS011;23337;52.212;9.926;2022-11-20T05:33:51;9.93;;;7.67;;
37483;SDS011;23337;52.212;9.926;2022-11-20T05:36:17;10.80;;;7.37;;
37483;SDS011;23337;52.212;9.926;2022-11-20T05:38:43;9.90;;;8.57;;
37483;SDS011;23337;52.212;9.926;2022-11-20T05:41:13;12.83;;;8.53;;
37483;SDS011;23337;52.212;9.926;2022-11-20T05:43:40;12.17;;;9.20;;
37483;SDS011;23337;52.212;9.926;2022-11-20T05:46:07;10.70;;;8.03;;
37483;SDS011;23337;52.212;9.926;2022-11-20T05:48:34;13.30;;;8.90;;
37483;SDS011;23337;52.212;9.926;2022-11-20T05:51:00;11.83;;;8.27;;
37483;SDS011;23337;52.212;9.926;2022-11-20T05:53:26;11.90;;;8.77;;
37483;SDS011;23337;52.212;9.926;2022-11-20T05:55:56;11.30;;;8.17;;
37483;SDS011;23337;52.212;9.926;2022-11-20T05:58:22;10.60;;;8.53;;
37483;SDS011;23337;52.212;9.926;2022-11-20T06:00:48;9.63;;;7.50;;
37483;SDS011;23337;52.212;9.926;2022-11-20T06:03:13;10.87;;;7.83;;
37483;SDS011;23337;52.212;9.926;2022-11-20T06:05:39;12.47;;;8.57;;
37483;SDS011;23337;52.212;9.926;2022-11-20T06:08:05;10.77;;;8.80;;
37483;SDS011;23337;52.212;9.926;2022-11-20T06:10:31;10.23;;;7.93;;
37483;SDS011;23337;52.212;9.926;2022-11-20T06:12:57;11.20;;;8.67;;
37483;SDS011;23337;52.212;9.926;2022-11-20T06:15:24;11.87;;;8.97;;
37483;SDS011;23337;52.212;9.926;2022-11-20T06:17:53;11.37;;;8.50;;
37483;SDS011;23337;52.212;9.926;2022-11-20T06:20:19;13.20;;;8.40;;
37483;SDS011;23337;52.212;9.926;2022-11-20T06:22:45;10.33;;;8.13;;
37483;SDS011;23337;52.212;9.926;2022-11-20T06:25:11;11.40;;;8.77;;
37483;SDS011;23337;52.212;9.926;2022-11-20T06:27:37;9.13;;;7.57;;
37483;SDS011;23337;52.212;9.926;2022-11-20T06:30:03;10.33;;;8.93;;
37483;SDS011;23337;52.212;9.926;2022-11-20T06:32:29;11.80;;;7.93;;
37483;SDS011;23337;52.212;9.926;2022-11-20T06:34:55;9.20;;;7.77;;
37483;SDS011;23337;52.212;9.926;2022-11-20T06:37:21;10.67;;;7.83;;
37483;SDS011;23337;52.212;9.926;2022-11-20T06:39:47;10.77;;;8.47;;
37483;SDS011;23337;52.212;9.926;2022-11-20T06:42:13;9.13;;;8.13;;
37483;SDS011;23337;52.212;9.926;2022-11-20T06:44:39;9.33;;;7.33;;
37483;SDS011;23337;52.212;9.926;2022-11-20T06:47:05;11.47;;;8.20;;
37483;SDS011;23337;52.212;9.926;2022-11-20T06:49:31;10.67;;;7.93;;
37483;SDS011;23337;52.212;9.926;2022-11-20T06:51:59;9.67;;;7.70;;
37483;SDS011;23337;52.212;9.926;2022-11-20T06:54:25;9.57;;;7.60;;
37483;SDS011;23337;52.212;9.926;2022-11-20T06:56:51;9.70;;;7.70;;
37483;SDS011;23337;52.212;9.926;2022-11-20T06:59:16;9.80;;;8.17;;
37483;SDS011;23337;52.212;9.926;2022-11-20T07:01:42;11.67;;;8.47;;
37483;SDS011;23337;52.212;9.926;2022-11-20T07:04:08;9.93;;;8.00;;
37483;SDS011;23337;52.212;9.926;2022-11-20T07:06:34;11.73;;;8.70;;
37483;SDS011;23337;52.212;9.926;2022-11-20T07:09:01;12.20;;;9.00;;
37483;SDS011;23337;52.212;9.926;2022-11-20T07:11:27;11.47;;;8.60;;
37483;SDS011;23337;52.212;9.926;2022-11-20T07:13:52;11.70;;;8.60;;
37483;SDS011;23337;52.212;9.926;2022-11-20T07:16:19;10.07;;;8.17;;
37483;SDS011;23337;52.212;9.926;2022-11-20T07:18:45;10.50;;;8.43;;
37483;SDS011;23337;52.212;9.926;2022-11-20T07:21:11;9.73;;;8.67;;
37483;SDS011;23337;52.212;9.926;2022-11-20T07:23:37;12.27;;;8.57;;
37483;SDS011;23337;52.212;9.926;2022-11-20T07:26:07;13.10;;;9.93;;
37483;SDS011;23337;52.212;9.926;2022-11-20T07:28:33;10.87;;;8.43;;
37483;SDS011;23337;52.212;9.926;2022-11-20T07:30:59;11.97;;;8.67;;
37483;SDS011;23337;52.212;9.926;2022-11-20T07:33:25;10.70;;;9.07;;
37483;SDS011;23337;52.212;9.926;2022-11-20T07:35:51;11.07;;;8.70;;
37483;SDS011;23337;52.212;9.926;2022-11-20T07:38:17;11.23;;;9.27;;
37483;SDS011;23337;52.212;9.926;2022-11-20T07:40:43;11.20;;;8.70;;
37483;SDS011;23337;52.212;9.926;2022-11-20T07:43:09;10.43;;;8.80;;
37483;SDS011;23337;52.212;9.926;2022-11-20T07:45:35;10.53;;;8.93;;
37483;SDS011;23337;52.212;9.926;2022-11-20T07:48:01;10.90;;;8.47;;
37483;SDS011;23337;52.212;9.926;2022-11-20T07:50:27;10.77;;;8.53;;
37483;SDS011;23337;52.212;9.926;2022-11-20T07:52:59;9.47;;;7.80;;
37483;SDS011;23337;52.212;9.926;2022-11-20T07:55:25;9.53;;;7.70;;
37483;SDS011;23337;52.212;9.926;2022-11-20T07:57:55;10.80;;;8.37;;
37483;SDS011;23337;52.212;9.926;2022-11-20T08:00:21;11.50;;;9.03;;
37483;SDS011;23337;52.212;9.926;2022-11-20T08:02:47;10.03;;;7.83;;
37483;SDS011;23337;52.212;9.926;2022-11-20T08:05:13;10.48;;;7.97;;
37483;SDS011;23337;52.212;9.926;2022-11-20T08:07:40;12.00;;;8.93;;
37483;SDS011;23337;52.212;9.926;2022-11-20T08:10:07;12.03;;;9.03;;
37483;SDS011;23337;52.212;9.926;2022-11-20T08:12:33;10.30;;;8.57;;
37483;SDS011;23337;52.212;9.926;2022-11-20T08:15:18;11.83;;;9.80;;
37483;SDS011;23337;52.212;9.926;2022-11-20T08:17:44;11.67;;;8.93;;
37483;SDS011;23337;52.212;9.926;2022-11-20T08:20:10;10.90;;;9.17;;
37483;SDS011;23337;52.212;9.926;2022-11-20T08:22:36;10.73;;;8.40;;
37483;SDS011;23337;52.212;9.926;2022-11-20T08:25:02;12.70;;;10.90;;
37483;SDS011;23337;52.212;9.926;2022-11-20T08:27:28;11.53;;;9.77;;
37483;SDS011;23337;52.212;9.926;2022-11-20T08:29:54;14.47;;;12.83;;
37483;SDS011;23337;52.212;9.926;2022-11-20T08:32:20;12.77;;;10.30;;
37483;SDS011;23337;52.212;9.926;2022-11-20T08:34:46;11.90;;;9.20;;
37483;SDS011;23337;52.212;9.926;2022-11-20T08:37:12;13.17;;;11.47;;
37483;SDS011;23337;52.212;9.926;2022-11-20T08:39:38;16.53;;;14.30;;
37483;SDS011;23337;52.212;9.926;2022-11-20T08:42:06;11.53;;;10.27;;
37483;SDS011;23337;52.212;9.926;2022-11-20T08:44:32;14.57;;;10.53;;
37483;SDS011;23337;52.212;9.926;2022-11-20T08:46:58;11.90;;;10.70;;
37483;SDS011;23337;52.212;9.926;2022-11-20T08:49:25;12.03;;;9.63;;
37483;SDS011;23337;52.212;9.926;2022-11-20T08:51:51;11.73;;;8.83;;
37483;SDS011;23337;52.212;9.926;2022-11-20T08:54:19;9.63;;;8.13;;
37483;SDS011;23337;52.212;9.926;2022-11-20T08:56:47;9.47;;;8.33;;
37483;SDS011;23337;52.212;9.926;2022-11-20T08:59:12;9.77;;;8.03;;
37483;SDS011;23337;52.212;9.926;2022-11-20T09:01:38;9.80;;;8.17;;
37483;SDS011;23337;52.212;9.926;2022-11-20T09:04:04;11.00;;;9.50;;
37483;SDS011;23337;52.212;9.926;2022-11-20T09:06:30;13.33;;;9.87;;
37483;SDS011;23337;52.212;9.926;2022-11-20T09:08:56;12.33;;;9.30;;
37483;SDS011;23337;52.212;9.926;2022-11-20T09:11:23;12.57;;;9.37;;
37483;SDS011;23337;52.212;9.926;2022-11-20T09:13:49;17.17;;;11.17;;
37483;SDS011;23337;52.212;9.926;2022-11-20T09:16:15;12.67;;;9.73;;
37483;SDS011;23337;52.212;9.926;2022-11-20T09:18:41;10.63;;;8.93;;
37483;SDS011;23337;52.212;9.926;2022-11-20T09:21:11;10.90;;;9.03;;
37483;SDS011;23337;52.212;9.926;2022-11-20T09:23:38;10.87;;;8.50;;
37483;SDS011;23337;52.212;9.926;2022-11-20T09:26:04;9.57;;;7.97;;
37483;SDS011;23337;52.212;9.926;2022-11-20T09:28:31;10.73;;;8.17;;
37483;SDS011;23337;52.212;9.926;2022-11-20T09:30:57;8.40;;;6.70;;
37483;SDS011;23337;52.212;9.926;2022-11-20T09:33:23;9.60;;;7.20;;
37483;SDS011;23337;52.212;9.926;2022-11-20T09:35:49;9.40;;;6.57;;
37483;SDS011;23337;52.212;9.926;2022-11-20T09:38:15;10.17;;;8.77;;
37483;SDS011;23337;52.212;9.926;2022-11-20T09:40:44;10.90;;;8.97;;
37483;SDS011;23337;52.212;9.926;2022-11-20T09:54:16;12.47;;;9.77;;
37483;SDS011;23337;52.212;9.926;2022-11-20T09:59:39;12.90;;;8.53;;
37483;SDS011;23337;52.212;9.926;2022-11-20T10:07:26;12.57;;;8.47;;
37483;SDS011;23337;52.212;9.926;2022-11-20T10:09:54;12.37;;;8.57;;
37483;SDS011;23337;52.212;9.926;2022-11-20T10:15:09;12.57;;;8.43;;
37483;SDS011;23337;52.212;9.926;2022-11-20T10:17:47;12.70;;;10.57;;
37483;SDS011;23337;52.212;9.926;2022-11-20T10:20:29;11.53;;;9.07;;
37483;SDS011;23337;52.212;9.926;2022-11-20T10:25:28;10.23;;;9.17;;
37483;SDS011;23337;52.212;9.926;2022-11-20T10:28:09;9.73;;;8.53;;
37483;SDS011;23337;52.212;9.926;2022-11-20T10:30:43;11.67;;;9.83;;
37483;SDS011;23337;52.212;9.926;2022-11-20T10:35:37;13.13;;;10.47;;
37483;SDS011;23337;52.212;9.926;2022-11-20T10:38:11;14.10;;;11.00;;
37483;SDS011;23337;52.212;9.926;2022-11-20T10:40:39;10.97;;;9.60;;
37483;SDS011;23337;52.212;9.926;2022-11-20T10:43:40;13.77;;;10.63;;
37483;SDS011;23337;52.212;9.926;2022-11-20T10:46:07;13.73;;;10.27;;
37483;SDS011;23337;52.212;9.926;2022-11-20T10:48:34;12.93;;;10.03;;
37483;SDS011;23337;52.212;9.926;2022-11-20T10:56:05;12.33;;;9.27;;
37483;SDS011;23337;52.212;9.926;2022-11-20T11:01:19;11.50;;;9.07;;
37483;SDS011;23337;52.212;9.926;2022-11-20T11:03:48;13.77;;;9.30;;
37483;SDS011;23337;52.212;9.926;2022-11-20T11:08:44;13.53;;;8.80;;
37483;SDS011;23337;52.212;9.926;2022-11-20T11:11:28;11.90;;;9.47;;
37483;SDS011;23337;52.212;9.926;2022-11-20T11:14:04;14.33;;;9.83;;
37483;SDS011;23337;52.212;9.926;2022-11-20T11:16:30;14.13;;;10.07;;
37483;SDS011;23337;52.212;9.926;2022-11-20T11:19:03;14.50;;;10.53;;
37483;SDS011;23337;52.212;9.926;2022-11-20T11:21:29;15.47;;;10.80;;
37483;SDS011;23337;52.212;9.926;2022-11-20T11:24:02;13.33;;;9.83;;
37483;SDS011;23337;52.212;9.926;2022-11-20T11:26:29;12.47;;;9.57;;
37483;SDS011;23337;52.212;9.926;2022-11-20T11:29:02;14.60;;;10.43;;
37483;SDS011;23337;52.212;9.926;2022-11-20T11:31:30;15.43;;;9.87;;
37483;SDS011;23337;52.212;9.926;2022-11-20T11:34:13;11.73;;;9.73;;
37483;SDS011;23337;52.212;9.926;2022-11-20T11:36:39;11.97;;;9.23;;
37483;SDS011;23337;52.212;9.926;2022-11-20T11:39:06;12.10;;;9.27;;
37483;SDS011;23337;52.212;9.926;2022-11-20T11:41:35;11.80;;;9.17;;
37483;SDS011;23337;52.212;9.926;2022-11-20T11:44:44;12.40;;;9.33;;
37483;SDS011;23337;52.212;9.926;2022-11-20T11:52:28;10.27;;;8.37;;
37483;SDS011;23337;52.212;9.926;2022-11-20T11:54:58;12.37;;;9.37;;
37483;SDS011;23337;52.212;9.926;2022-11-20T12:02:48;10.07;;;8.70;;
37483;SDS011;23337;52.212;9.926;2022-11-20T12:11:00;13.90;;;10.73;;
37483;SDS011;23337;52.212;9.926;2022-11-20T12:15:50;13.67;;;10.00;;
37483;SDS011;23337;52.212;9.926;2022-11-20T12:18:18;17.60;;;12.40;;
37483;SDS011;23337;52.212;9.926;2022-11-20T12:20:45;13.77;;;11.37;;
37483;SDS011;23337;52.212;9.926;2022-11-20T12:23:18;16.90;;;10.87;;
37483;SDS011;23337;52.212;9.926;2022-11-20T12:25:47;14.93;;;11.07;;
37483;SDS011;23337;52.212;9.926;2022-11-20T12:28:18;13.37;;;9.97;;
37483;SDS011;23337;52.212;9.926;2022-11-20T12:38:58;29.33;;;18.80;;
37483;SDS011;23337;52.212;9.926;2022-11-20T12:41:40;16.87;;;11.90;;
37483;SDS011;23337;52.212;9.926;2022-11-20T12:44:38;17.07;;;11.97;;
37483;SDS011;23337;52.212;9.926;2022-11-20T12:50:01;12.53;;;10.07;;
37483;SDS011;23337;52.212;9.926;2022-11-20T13:07:46;14.67;;;10.93;;
37483;SDS011;23337;52.212;9.926;2022-11-20T13:10:25;17.17;;;12.17;;
37483;SDS011;23337;52.212;9.926;2022-11-20T13:12:57;17.73;;;12.67;;
37483;SDS011;23337;52.212;9.926;2022-11-20T13:18:05;17.43;;;11.13;;
37483;SDS011;23337;52.212;9.926;2022-11-20T13:20:33;12.87;;;9.90;;
37483;SDS011;23337;52.212;9.926;2022-11-20T13:23:00;15.30;;;11.37;;
37483;SDS011;23337;52.212;9.926;2022-11-20T13:25:30;16.50;;;11.97;;
37483;SDS011;23337;52.212;9.926;2022-11-20T13:27:57;18.23;;;11.33;;
37483;SDS011;23337;52.212;9.926;2022-11-20T13:30:24;16.83;;;10.43;;
37483;SDS011;23337;52.212;9.926;2022-11-20T13:32:52;15.70;;;11.07;;
37483;SDS011;23337;52.212;9.926;2022-11-20T13:38:05;14.43;;;10.53;;
37483;SDS011;23337;52.212;9.926;2022-11-20T13:40:31;14.33;;;10.57;;
37483;SDS011;23337;52.212;9.926;2022-11-20T13:43:19;15.97;;;10.87;;
37483;SDS011;23337;52.212;9.926;2022-11-20T13:46:01;14.60;;;10.53;;
37483;SDS011;23337;52.212;9.926;2022-11-20T13:48:32;19.57;;;11.83;;
37483;SDS011;23337;52.212;9.926;2022-11-20T13:51:07;15.50;;;10.37;;
37483;SDS011;23337;52.212;9.926;2022-11-20T13:53:46;18.40;;;12.03;;
37483;SDS011;23337;52.212;9.926;2022-11-20T13:56:17;19.80;;;13.83;;
37483;SDS011;23337;52.212;9.926;2022-11-20T13:58:57;20.63;;;14.93;;
37483;SDS011;23337;52.212;9.926;2022-11-20T14:01:26;18.73;;;12.97;;
37483;SDS011;23337;52.212;9.926;2022-11-20T14:03:52;20.30;;;14.50;;
37483;SDS011;23337;52.212;9.926;2022-11-20T14:06:26;16.83;;;11.90;;
37483;SDS011;23337;52.212;9.926;2022-11-20T14:08:52;16.93;;;12.30;;
37483;SDS011;23337;52.212;9.926;2022-11-20T14:13:52;19.47;;;12.43;;
37483;SDS011;23337;52.212;9.926;2022-11-20T14:16:21;25.70;;;15.77;;
37483;SDS011;23337;52.212;9.926;2022-11-20T14:18:47;23.80;;;15.63;;
37483;SDS011;23337;52.212;9.926;2022-11-20T14:21:26;22.03;;;15.53;;
37483;SDS011;23337;52.212;9.926;2022-11-20T14:24:18;17.00;;;12.10;;
37483;SDS011;23337;52.212;9.926;2022-11-20T14:26:42;23.10;;;15.77;;
37483;SDS011;23337;52.212;9.926;2022-11-20T14:29:16;21.20;;;14.67;;
37483;SDS011;23337;52.212;9.926;2022-11-20T14:31:42;21.80;;;15.17;;
37483;SDS011;23337;52.212;9.926;2022-11-20T14:34:17;22.40;;;15.50;;
37483;SDS011;23337;52.212;9.926;2022-11-20T14:36:43;16.27;;;12.40;;
37483;SDS011;23337;52.212;9.926;2022-11-20T14:39:20;24.27;;;15.93;;
37483;SDS011;23337;52.212;9.926;2022-11-20T14:41:52;17.53;;;13.80;;
37483;SDS011;23337;52.212;9.926;2022-11-20T14:44:23;30.27;;;20.80;;
37483;SDS011;23337;52.212;9.926;2022-11-20T14:46:51;19.27;;;14.73;;
37483;SDS011;23337;52.212;9.926;2022-11-20T14:49:17;17.93;;;11.57;;
37483;SDS011;23337;52.212;9.926;2022-11-20T14:51:43;12.87;;;10.60;;
37483;SDS011;23337;52.212;9.926;2022-11-20T14:54:12;13.30;;;10.83;;
37483;SDS011;23337;52.212;9.926;2022-11-20T14:56:38;14.37;;;12.10;;
37483;SDS011;23337;52.212;9.926;2022-11-20T14:59:04;13.13;;;10.00;;
37483;SDS011;23337;52.212;9.926;2022-11-20T15:01:30;13.10;;;10.10;;
37483;SDS011;23337;52.212;9.926;2022-11-20T15:04:00;13.10;;;9.60;;
37483;SDS011;23337;52.212;9.926;2022-11-20T15:06:27;13.20;;;10.60;;
37483;SDS011;23337;52.212;9.926;2022-11-20T15:08:54;12.93;;;9.50;;
37483;SDS011;23337;52.212;9.926;2022-11-20T15:11:22;14.03;;;10.00;;
37483;SDS011;23337;52.212;9.926;2022-11-20T15:13:49;14.07;;;9.57;;
37483;SDS011;23337;52.212;9.926;2022-11-20T15:16:19;14.00;;;10.60;;
37483;SDS011;23337;52.212;9.926;2022-11-20T15:18:45;14.53;;;10.93;;
37483;SDS011;23337;52.212;9.926;2022-11-20T15:21:13;15.53;;;11.03;;
37483;SDS011;23337;52.212;9.926;2022-11-20T15:23:39;16.07;;;11.50;;
37483;SDS011;23337;52.212;9.926;2022-11-20T15:26:06;14.80;;;11.20;;
37483;SDS011;23337;52.212;9.926;2022-11-20T15:28:35;13.90;;;10.77;;
37483;SDS011;23337;52.212;9.926;2022-11-20T15:31:02;17.23;;;11.83;;
37483;SDS011;23337;52.212;9.926;2022-11-20T15:33:29;12.03;;;10.00;;
37483;SDS011;23337;52.212;9.926;2022-11-20T15:35:55;12.10;;;9.50;;
37483;SDS011;23337;52.212;9.926;2022-11-20T15:38:21;12.07;;;9.23;;
37483;SDS011;23337;52.212;9.926;2022-11-20T15:40:47;13.20;;;9.23;;
37483;SDS011;23337;52.212;9.926;2022-11-20T15:43:13;15.20;;;10.00;;
37483;SDS011;23337;52.212;9.926;2022-11-20T15:45:43;11.87;;;9.17;;
37483;SDS011;23337;52.212;9.926;2022-11-20T15:48:14;12.97;;;11.20;;
37483;SDS011;23337;52.212;9.926;2022-11-20T15:50:43;13.37;;;10.60;;
37483;SDS011;23337;52.212;9.926;2022-11-20T15:53:13;16.77;;;11.93;;
37483;SDS011;23337;52.212;9.926;2022-11-20T15:55:39;16.00;;;11.37;;
37483;SDS011;23337;52.212;9.926;2022-11-20T15:58:05;22.47;;;14.47;;
37483;SDS011;23337;52.212;9.926;2022-11-20T16:00:31;30.27;;;16.57;;
37483;SDS011;23337;52.212;9.926;2022-11-20T16:02:57;31.17;;;18.00;;
37483;SDS011;23337;52.212;9.926;2022-11-20T16:05:23;29.63;;;19.03;;
37483;SDS011;23337;52.212;9.926;2022-11-20T16:07:49;22.87;;;15.23;;
37483;SDS011;23337;52.212;9.926;2022-11-20T16:10:16;19.67;;;13.43;;